sensor_id;sensor_type;location;lat;lon;timestamp;pressure;altitude;pressure_sealevel;temperature;humidity
54592;BME280;40488;48.558;18.150;2022-10-31T00:01:38;100198.56;;;11.84;98.42
54592;BME280;40488;48.558;18.150;2022-10-31T00:04:07;100202.00;;;11.89;98.38
54592;BME280;40488;48.558;18.150;2022-10-31T00:06:35;100207.13;;;11.92;98.40
54592;BME280;40488;48.558;18.150;2022-10-31T00:09:04;100202.00;;;11.89;98.49
54592;BME280;40488;48.558;18.150;2022-10-31T00:11:34;100192.59;;;11.84;98.42
54592;BME280;40488;48.558;18.150;2022-10-31T00:14:03;100208.84;;;11.96;98.27
54592;BME280;40488;48.558;18.150;2022-10-31T00:16:32;100209.69;;;11.97;98.46
54592;BME280;40488;48.558;18.150;2022-10-31T00:19:03;100210.53;;;11.96;98.13
54592;BME280;40488;48.558;18.150;2022-10-31T00:21:33;100207.13;;;11.97;98.35
54592;BME280;40488;48.558;18.150;2022-10-31T00:24:02;100202.88;;;11.99;97.90
54592;BME280;40488;48.558;18.150;2022-10-31T00:26:31;100206.25;;;11.98;97.97
54592;BME280;40488;48.558;18.150;2022-10-31T00:29:01;100199.47;;;11.92;98.22
54592;BME280;40488;48.558;18.150;2022-10-31T00:31:30;100207.13;;;11.98;98.23
54592;BME280;40488;48.558;18.150;2022-10-31T00:34:00;100200.28;;;11.97;97.87
54592;BME280;40488;48.558;18.150;2022-10-31T00:36:30;100207.97;;;11.94;97.90
54592;BME280;40488;48.558;18.150;2022-10-31T00:38:58;100185.78;;;11.81;98.08
54592;BME280;40488;48.558;18.150;2022-10-31T00:41:28;100193.47;;;11.92;98.07
54592;BME280;40488;48.558;18.150;2022-10-31T00:43:57;100195.19;;;11.91;97.89
54592;BME280;40488;48.558;18.150;2022-10-31T00:46:27;100194.31;;;11.85;97.88
54592;BME280;40488;48.558;18.150;2022-10-31T00:48:56;100202.81;;;11.84;97.83
54592;BME280;40488;48.558;18.150;2022-10-31T00:51:25;100196.84;;;11.77;97.87
54592;BME280;40488;48.558;18.150;2022-10-31T00:53:53;100190.88;;;11.74;97.89
54592;BME280;40488;48.558;18.150;2022-10-31T00:56:22;100188.31;;;11.72;97.83
54592;BME280;40488;48.558;18.150;2022-10-31T00:58:51;100187.47;;;11.70;97.80
54592;BME280;40488;48.558;18.150;2022-10-31T01:01:20;100191.66;;;11.65;97.89
54592;BME280;40488;48.558;18.150;2022-10-31T01:03:51;100196.75;;;11.62;97.98
54592;BME280;40488;48.558;18.150;2022-10-31T01:06:20;100186.53;;;11.59;97.90
54592;BME280;40488;48.558;18.150;2022-10-31T01:08:49;100183.09;;;11.57;97.83
54592;BME280;40488;48.558;18.150;2022-10-31T01:11:20;100181.41;;;11.59;98.02
54592;BME280;40488;48.558;18.150;2022-10-31T01:13:50;100190.78;;;11.57;98.02
54592;BME280;40488;48.558;18.150;2022-10-31T01:16:22;100153.22;;;11.36;97.93
54592;BME280;40488;48.558;18.150;2022-10-31T01:18:53;100187.38;;;11.55;97.88
54592;BME280;40488;48.558;18.150;2022-10-31T01:21:23;100187.34;;;11.57;98.04
54592;BME280;40488;48.558;18.150;2022-10-31T01:23:57;100181.41;;;11.53;98.08
54592;BME280;40488;48.558;18.150;2022-10-31T01:26:26;100182.25;;;11.57;98.13
54592;BME280;40488;48.558;18.150;2022-10-31T01:28:57;100177.16;;;11.60;98.16
54592;BME280;40488;48.558;18.150;2022-10-31T01:31:29;100177.19;;;11.61;98.06
54592;BME280;40488;48.558;18.150;2022-10-31T01:34:00;100179.72;;;11.60;98.18
54592;BME280;40488;48.558;18.150;2022-10-31T01:36:31;100177.16;;;11.60;98.22
54592;BME280;40488;48.558;18.150;2022-10-31T01:39:03;100178.88;;;11.61;98.19
54592;BME280;40488;48.558;18.150;2022-10-31T01:41:36;100178.03;;;11.63;98.16
54592;BME280;40488;48.558;18.150;2022-10-31T01:47:02;100133.63;;;11.40;98.34
54592;BME280;40488;48.558;18.150;2022-10-31T01:49:37;100172.91;;;11.60;98.12
54592;BME280;40488;48.558;18.150;2022-10-31T01:52:12;100172.88;;;11.57;98.13
54592;BME280;40488;48.558;18.150;2022-10-31T01:54:46;100171.16;;;11.55;98.03
54592;BME280;40488;48.558;18.150;2022-10-31T01:57:18;100166.09;;;11.56;98.17
54592;BME280;40488;48.558;18.150;2022-10-31T01:59:54;100170.34;;;11.56;98.35
54592;BME280;40488;48.558;18.150;2022-10-31T02:02:27;100164.34;;;11.52;98.24
54592;BME280;40488;48.558;18.150;2022-10-31T02:05:02;100166.03;;;11.50;98.55
54592;BME280;40488;48.558;18.150;2022-10-31T02:07:36;100168.63;;;11.53;98.34
54592;BME280;40488;48.558;18.150;2022-10-31T02:10:07;100156.69;;;11.55;98.49
54592;BME280;40488;48.558;18.150;2022-10-31T02:12:35;100160.09;;;11.54;98.52
54592;BME280;40488;48.558;18.150;2022-10-31T02:15:06;100162.69;;;11.60;98.20
54592;BME280;40488;48.558;18.150;2022-10-31T02:17:35;100149.03;;;11.55;98.45
54592;BME280;40488;48.558;18.150;2022-10-31T02:20:13;100153.28;;;11.58;98.30
54592;BME280;40488;48.558;18.150;2022-10-31T02:23:06;100155.84;;;11.56;98.38
54592;BME280;40488;48.558;18.150;2022-10-31T02:25:56;100160.09;;;11.57;98.47
54592;BME280;40488;48.558;18.150;2022-10-31T02:28:45;100159.25;;;11.58;98.48
54592;BME280;40488;48.558;18.150;2022-10-31T02:31:31;100160.94;;;11.59;98.47
54592;BME280;40488;48.558;18.150;2022-10-31T02:34:09;100157.53;;;11.57;98.61
54592;BME280;40488;48.558;18.150;2022-10-31T02:36:52;100154.13;;;11.55;98.24
54592;BME280;40488;48.558;18.150;2022-10-31T02:39:26;100149.84;;;11.50;98.39
54592;BME280;40488;48.558;18.150;2022-10-31T02:42:03;100154.97;;;11.50;98.19
54592;BME280;40488;48.558;18.150;2022-10-31T02:44:38;100159.22;;;11.46;98.59
54592;BME280;40488;48.558;18.150;2022-10-31T02:47:13;100157.50;;;11.45;98.37
54592;BME280;40488;48.558;18.150;2022-10-31T02:49:47;100154.94;;;11.43;98.48
54592;BME280;40488;48.558;18.150;2022-10-31T02:52:17;100165.13;;;11.37;98.43
54592;BME280;40488;48.558;18.150;2022-10-31T02:54:47;100168.53;;;11.35;98.42
54592;BME280;40488;48.558;18.150;2022-10-31T02:57:17;100165.13;;;11.33;98.40
54592;BME280;40488;48.558;18.150;2022-10-31T02:59:51;100171.09;;;11.29;98.36
54592;BME280;40488;48.558;18.150;2022-10-31T03:05:37;100165.97;;;11.35;98.71
54592;BME280;40488;48.558;18.150;2022-10-31T03:08:17;100125.03;;;11.11;98.54
54592;BME280;40488;48.558;18.150;2022-10-31T03:10:52;100175.38;;;11.36;98.57
54592;BME280;40488;48.558;18.150;2022-10-31T03:13:32;100163.44;;;11.32;98.53
54592;BME280;40488;48.558;18.150;2022-10-31T03:16:10;100171.09;;;11.35;98.55
54592;BME280;40488;48.558;18.150;2022-10-31T03:18:49;100167.66;;;11.27;98.66
54592;BME280;40488;48.558;18.150;2022-10-31T03:21:22;100176.22;;;11.32;98.64
54592;BME280;40488;48.558;18.150;2022-10-31T03:23:55;100177.06;;;11.34;98.59
54592;BME280;40488;48.558;18.150;2022-10-31T03:26:25;100175.38;;;11.37;98.70
54592;BME280;40488;48.558;18.150;2022-10-31T03:28:58;100180.53;;;11.42;98.83
54592;BME280;40488;48.558;18.150;2022-10-31T03:31:32;100171.97;;;11.44;98.78
54592;BME280;40488;48.558;18.150;2022-10-31T03:34:02;100184.75;;;11.43;98.74
54592;BME280;40488;48.558;18.150;2022-10-31T03:36:35;100185.59;;;11.40;98.68
54592;BME280;40488;48.558;18.150;2022-10-31T03:39:10;100186.47;;;11.41;98.86
54592;BME280;40488;48.558;18.150;2022-10-31T03:41:45;100182.22;;;11.43;98.73
54592;BME280;40488;48.558;18.150;2022-10-31T03:44:17;100183.91;;;11.42;98.71
54592;BME280;40488;48.558;18.150;2022-10-31T03:46:56;100178.78;;;11.36;98.57
54592;BME280;40488;48.558;18.150;2022-10-31T03:49:25;100185.63;;;11.42;98.70
54592;BME280;40488;48.558;18.150;2022-10-31T03:52:02;100192.44;;;11.41;98.48
54592;BME280;40488;48.558;18.150;2022-10-31T03:54:41;100189.84;;;11.40;98.60
54592;BME280;40488;48.558;18.150;2022-10-31T03:57:16;100189.84;;;11.40;98.56
54592;BME280;40488;48.558;18.150;2022-10-31T03:59:51;100186.44;;;11.38;98.54
54592;BME280;40488;48.558;18.150;2022-10-31T04:02:26;100186.44;;;11.35;98.38
54592;BME280;40488;48.558;18.150;2022-10-31T04:04:58;100186.41;;;11.30;98.58
54592;BME280;40488;48.558;18.150;2022-10-31T04:07:34;100188.97;;;11.30;98.41
54592;BME280;40488;48.558;18.150;2022-10-31T04:10:11;100192.38;;;11.29;98.54
54592;BME280;40488;48.558;18.150;2022-10-31T04:12:44;100186.38;;;11.26;98.35
54592;BME280;40488;48.558;18.150;2022-10-31T04:15:23;100142.84;;;10.99;98.76
54592;BME280;40488;48.558;18.150;2022-10-31T04:17:57;100184.69;;;11.22;98.53
54592;BME280;40488;48.558;18.150;2022-10-31T04:20:30;100186.38;;;11.20;98.92
54592;BME280;40488;48.558;18.150;2022-10-31T04:23:00;100190.66;;;11.24;98.47
54592;BME280;40488;48.558;18.150;2022-10-31T04:25:31;100188.94;;;11.21;98.46
54592;BME280;40488;48.558;18.150;2022-10-31T04:28:00;100189.78;;;11.20;98.55
54592;BME280;40488;48.558;18.150;2022-10-31T04:30:29;100196.59;;;11.23;98.50
54592;BME280;40488;48.558;18.150;2022-10-31T04:32:58;100188.09;;;11.24;98.51
54592;BME280;40488;48.558;18.150;2022-10-31T04:35:28;100193.25;;;11.31;98.48
54592;BME280;40488;48.558;18.150;2022-10-31T04:37:57;100189.00;;;11.36;98.66
54592;BME280;40488;48.558;18.150;2022-10-31T04:40:27;100183.03;;;11.34;98.51
54592;BME280;40488;48.558;18.150;2022-10-31T04:43:18;100183.88;;;11.33;98.67
54592;BME280;40488;48.558;18.150;2022-10-31T04:45:48;100176.22;;;11.32;98.46
54592;BME280;40488;48.558;18.150;2022-10-31T04:48:16;100183.88;;;11.35;98.64
54592;BME280;40488;48.558;18.150;2022-10-31T04:50:45;100179.59;;;11.31;98.49
54592;BME280;40488;48.558;18.150;2022-10-31T04:53:14;100149.69;;;11.01;98.41
54592;BME280;40488;48.558;18.150;2022-10-31T04:55:57;100186.34;;;11.17;98.34
54592;BME280;40488;48.558;18.150;2022-10-31T04:58:33;100189.75;;;11.16;98.19
54592;BME280;40488;48.558;18.150;2022-10-31T05:01:03;100188.88;;;11.14;98.30
54592;BME280;40488;48.558;18.150;2022-10-31T05:03:33;100189.75;;;11.19;97.99
54592;BME280;40488;48.558;18.150;2022-10-31T05:06:04;100188.06;;;11.21;98.51
54592;BME280;40488;48.558;18.150;2022-10-31T05:08:32;100199.13;;;11.17;98.38
54592;BME280;40488;48.558;18.150;2022-10-31T05:11:05;100192.25;;;11.05;98.28
54592;BME280;40488;48.558;18.150;2022-10-31T05:13:34;100184.47;;;10.86;98.33
54592;BME280;40488;48.558;18.150;2022-10-31T05:16:28;100208.31;;;10.86;98.27
54592;BME280;40488;48.558;18.150;2022-10-31T05:19:08;100204.84;;;10.76;98.27
54592;BME280;40488;48.558;18.150;2022-10-31T05:21:47;100210.81;;;10.78;98.46
54592;BME280;40488;48.558;18.150;2022-10-31T05:24:16;100209.16;;;10.84;98.62
54592;BME280;40488;48.558;18.150;2022-10-31T05:26:49;100210.03;;;10.89;98.59
54592;BME280;40488;48.558;18.150;2022-10-31T05:29:17;100202.34;;;10.87;98.49
54592;BME280;40488;48.558;18.150;2022-10-31T05:31:47;100201.50;;;10.84;98.43
54592;BME280;40488;48.558;18.150;2022-10-31T05:34:36;100209.97;;;10.83;98.64
54592;BME280;40488;48.558;18.150;2022-10-31T05:37:18;100216.00;;;10.92;98.20
54592;BME280;40488;48.558;18.150;2022-10-31T05:39:47;100215.19;;;10.92;98.62
54592;BME280;40488;48.558;18.150;2022-10-31T05:42:18;100218.56;;;10.91;98.60
54592;BME280;40488;48.558;18.150;2022-10-31T05:44:47;100216.84;;;10.88;98.42
54592;BME280;40488;48.558;18.150;2022-10-31T05:47:30;100222.00;;;10.96;98.65
54592;BME280;40488;48.558;18.150;2022-10-31T05:50:10;100227.94;;;10.92;98.57
54592;BME280;40488;48.558;18.150;2022-10-31T05:52:47;100230.50;;;10.92;98.67
54592;BME280;40488;48.558;18.150;2022-10-31T05:55:30;100227.09;;;10.94;98.60
54592;BME280;40488;48.558;18.150;2022-10-31T05:58:08;100223.66;;;10.91;98.64
54592;BME280;40488;48.558;18.150;2022-10-31T06:00:40;100233.91;;;10.94;98.59
54592;BME280;40488;48.558;18.150;2022-10-31T06:03:10;100236.47;;;10.97;98.69
54592;BME280;40488;48.558;18.150;2022-10-31T06:05:59;100220.25;;;10.89;98.59
54592;BME280;40488;48.558;18.150;2022-10-31T06:08:35;100244.19;;;11.01;98.75
54592;BME280;40488;48.558;18.150;2022-10-31T06:11:08;100233.97;;;11.01;98.67
54592;BME280;40488;48.558;18.150;2022-10-31T06:13:49;100244.22;;;11.12;98.74
54592;BME280;40488;48.558;18.150;2022-10-31T06:16:23;100247.66;;;11.14;98.60
54592;BME280;40488;48.558;18.150;2022-10-31T06:18:55;100248.50;;;11.16;98.65
54592;BME280;40488;48.558;18.150;2022-10-31T06:21:24;100240.84;;;11.13;98.73
54592;BME280;40488;48.558;18.150;2022-10-31T06:23:52;100249.38;;;11.21;98.54
54592;BME280;40488;48.558;18.150;2022-10-31T06:26:41;100258.78;;;11.23;98.66
54592;BME280;40488;48.558;18.150;2022-10-31T06:29:12;100262.19;;;11.25;98.46
54592;BME280;40488;48.558;18.150;2022-10-31T06:32:03;100258.81;;;11.25;98.65
54592;BME280;40488;48.558;18.150;2022-10-31T06:34:38;100257.94;;;11.26;98.46
54592;BME280;40488;48.558;18.150;2022-10-31T06:37:07;100266.41;;;11.19;98.08
54592;BME280;40488;48.558;18.150;2022-10-31T06:39:38;100266.38;;;11.10;98.11
54592;BME280;40488;48.558;18.150;2022-10-31T06:42:09;100272.28;;;11.03;98.23
54592;BME280;40488;48.558;18.150;2022-10-31T06:44:40;100273.13;;;11.05;98.19
54592;BME280;40488;48.558;18.150;2022-10-31T06:47:20;100276.53;;;11.02;98.28
54592;BME280;40488;48.558;18.150;2022-10-31T06:49:56;100273.09;;;10.96;98.29
54592;BME280;40488;48.558;18.150;2022-10-31T06:52:25;100279.06;;;10.98;98.48
54592;BME280;40488;48.558;18.150;2022-10-31T06:54:55;100281.63;;;11.04;98.17
54592;BME280;40488;48.558;18.150;2022-10-31T06:57:24;100276.53;;;11.04;98.30
54592;BME280;40488;48.558;18.150;2022-10-31T06:59:56;100287.59;;;11.03;98.28
54592;BME280;40488;48.558;18.150;2022-10-31T07:02:35;100290.22;;;11.10;98.39
54592;BME280;40488;48.558;18.150;2022-10-31T07:05:05;100288.53;;;11.14;98.31
54592;BME280;40488;48.558;18.150;2022-10-31T07:07:34;100295.31;;;11.13;98.14
54592;BME280;40488;48.558;18.150;2022-10-31T07:10:03;100297.03;;;11.16;98.06
54592;BME280;40488;48.558;18.150;2022-10-31T07:12:43;100287.69;;;11.16;98.28
54592;BME280;40488;48.558;18.150;2022-10-31T07:15:14;100296.19;;;11.12;98.18
54592;BME280;40488;48.558;18.150;2022-10-31T07:17:43;100291.91;;;11.10;98.12
54592;BME280;40488;48.558;18.150;2022-10-31T07:20:12;100293.63;;;11.14;98.17
54592;BME280;40488;48.558;18.150;2022-10-31T07:22:41;100290.28;;;11.21;98.12
54592;BME280;40488;48.558;18.150;2022-10-31T07:25:26;100287.75;;;11.28;98.46
54592;BME280;40488;48.558;18.150;2022-10-31T07:28:18;100292.00;;;11.28;98.13
54592;BME280;40488;48.558;18.150;2022-10-31T07:30:52;100283.47;;;11.23;97.78
54592;BME280;40488;48.558;18.150;2022-10-31T07:33:21;100283.50;;;11.24;97.89
54592;BME280;40488;48.558;18.150;2022-10-31T07:36:01;100292.03;;;11.31;97.90
54592;BME280;40488;48.558;18.150;2022-10-31T07:38:32;100291.19;;;11.27;97.97
54592;BME280;40488;48.558;18.150;2022-10-31T07:41:04;100280.13;;;11.30;97.82
54592;BME280;40488;48.558;18.150;2022-10-31T07:43:38;100284.34;;;11.20;97.53
54592;BME280;40488;48.558;18.150;2022-10-31T07:46:11;100290.28;;;11.24;98.05
54592;BME280;40488;48.558;18.150;2022-10-31T07:49:03;100292.03;;;11.25;97.66
54592;BME280;40488;48.558;18.150;2022-10-31T07:51:42;100291.19;;;11.29;97.69
54592;BME280;40488;48.558;18.150;2022-10-31T07:54:18;100286.09;;;11.32;97.68
54592;BME280;40488;48.558;18.150;2022-10-31T07:56:47;100290.31;;;11.28;97.49
54592;BME280;40488;48.558;18.150;2022-10-31T07:59:16;100285.25;;;11.30;97.45
54592;BME280;40488;48.558;18.150;2022-10-31T08:01:46;100286.97;;;11.34;97.60
54592;BME280;40488;48.558;18.150;2022-10-31T08:04:25;100281.00;;;11.38;97.41
54592;BME280;40488;48.558;18.150;2022-10-31T08:07:05;100283.59;;;11.41;97.42
54592;BME280;40488;48.558;18.150;2022-10-31T08:09:36;100281.88;;;11.37;97.33
54592;BME280;40488;48.558;18.150;2022-10-31T08:12:17;100281.84;;;11.35;97.41
54592;BME280;40488;48.558;18.150;2022-10-31T08:14:46;100276.75;;;11.37;97.41
54592;BME280;40488;48.558;18.150;2022-10-31T08:17:19;100286.97;;;11.37;97.22
54592;BME280;40488;48.558;18.150;2022-10-31T08:19:59;100285.28;;;11.39;97.26
54592;BME280;40488;48.558;18.150;2022-10-31T08:22:32;100287.84;;;11.39;97.06
54592;BME280;40488;48.558;18.150;2022-10-31T08:25:07;100286.97;;;11.40;96.94
54592;BME280;40488;48.558;18.150;2022-10-31T08:27:36;100293.84;;;11.44;96.87
54592;BME280;40488;48.558;18.150;2022-10-31T08:30:06;100283.59;;;11.47;97.02
54592;BME280;40488;48.558;18.150;2022-10-31T08:32:39;100282.78;;;11.48;96.69
54592;BME280;40488;48.558;18.150;2022-10-31T08:35:18;100287.94;;;11.56;96.77
54592;BME280;40488;48.558;18.150;2022-10-31T08:38:07;100281.97;;;11.58;96.57
54592;BME280;40488;48.558;18.150;2022-10-31T08:40:37;100276.03;;;11.64;96.85
54592;BME280;40488;48.558;18.150;2022-10-31T08:43:12;100282.91;;;11.68;96.79
54592;BME280;40488;48.558;18.150;2022-10-31T08:45:41;100286.28;;;11.65;96.43
54592;BME280;40488;48.558;18.150;2022-10-31T08:48:19;100282.03;;;11.66;96.54
54592;BME280;40488;48.558;18.150;2022-10-31T08:50:47;100284.59;;;11.69;96.23
54592;BME280;40488;48.558;18.150;2022-10-31T08:53:16;100278.66;;;11.71;96.38
54592;BME280;40488;48.558;18.150;2022-10-31T08:55:54;100279.53;;;11.75;96.01
54592;BME280;40488;48.558;18.150;2022-10-31T08:58:25;100282.09;;;11.73;96.05
54592;BME280;40488;48.558;18.150;2022-10-31T09:00:58;100277.81;;;11.74;96.04
54592;BME280;40488;48.558;18.150;2022-10-31T09:03:30;100280.38;;;11.78;95.99
54592;BME280;40488;48.558;18.150;2022-10-31T09:06:00;100285.50;;;11.78;95.85
54592;BME280;40488;48.558;18.150;2022-10-31T09:08:30;100283.81;;;11.77;96.10
54592;BME280;40488;48.558;18.150;2022-10-31T09:11:00;100285.50;;;11.81;95.56
54592;BME280;40488;48.558;18.150;2022-10-31T09:13:52;100286.34;;;11.76;95.49
54592;BME280;40488;48.558;18.150;2022-10-31T09:16:26;100282.00;;;11.67;95.63
54592;BME280;40488;48.558;18.150;2022-10-31T09:18:56;100291.38;;;11.61;95.45
54592;BME280;40488;48.558;18.150;2022-10-31T09:21:25;100290.44;;;11.48;95.16
54592;BME280;40488;48.558;18.150;2022-10-31T09:23:53;100298.94;;;11.44;95.14
54592;BME280;40488;48.558;18.150;2022-10-31T09:26:21;100290.41;;;11.39;95.08
54592;BME280;40488;48.558;18.150;2022-10-31T09:29:00;100295.53;;;11.45;95.27
54592;BME280;40488;48.558;18.150;2022-10-31T09:31:30;100292.13;;;11.43;95.14
54592;BME280;40488;48.558;18.150;2022-10-31T09:34:06;100298.94;;;11.47;95.20
54592;BME280;40488;48.558;18.150;2022-10-31T09:36:37;100293.84;;;11.50;95.32
54592;BME280;40488;48.558;18.150;2022-10-31T09:39:10;100294.75;;;11.55;95.43
54592;BME280;40488;48.558;18.150;2022-10-31T09:41:44;100294.75;;;11.54;95.38
54592;BME280;40488;48.558;18.150;2022-10-31T09:44:26;100295.56;;;11.51;95.31
54592;BME280;40488;48.558;18.150;2022-10-31T09:47:02;100293.91;;;11.56;95.36
54592;BME280;40488;48.558;18.150;2022-10-31T09:49:41;100294.78;;;11.64;95.28
54592;BME280;40488;48.558;18.150;2022-10-31T09:52:20;100286.31;;;11.70;95.56
54592;BME280;40488;48.558;18.150;2022-10-31T09:54:53;100287.19;;;11.76;95.60
54592;BME280;40488;48.558;18.150;2022-10-31T09:57:23;100287.25;;;11.82;95.61
54592;BME280;40488;48.558;18.150;2022-10-31T09:59:53;100285.56;;;11.87;95.29
54592;BME280;40488;48.558;18.150;2022-10-31T10:02:23;100286.38;;;11.82;95.33
54592;BME280;40488;48.558;18.150;2022-10-31T10:04:56;100287.22;;;11.84;95.56
54592;BME280;40488;48.558;18.150;2022-10-31T10:07:32;100284.66;;;11.85;95.23
54592;BME280;40488;48.558;18.150;2022-10-31T10:10:15;100283.00;;;11.92;95.29
54592;BME280;40488;48.558;18.150;2022-10-31T10:13:04;100288.16;;;11.99;95.29
54592;BME280;40488;48.558;18.150;2022-10-31T10:15:41;100288.13;;;11.93;95.22
54592;BME280;40488;48.558;18.150;2022-10-31T10:18:18;100285.53;;;11.84;95.28
54592;BME280;40488;48.558;18.150;2022-10-31T10:20:55;100282.97;;;11.81;95.15
54592;BME280;40488;48.558;18.150;2022-10-31T10:23:32;100282.97;;;11.80;95.33
54592;BME280;40488;48.558;18.150;2022-10-31T10:26:04;100282.97;;;11.84;95.02
54592;BME280;40488;48.558;18.150;2022-10-31T10:28:38;100285.56;;;11.93;95.28
54592;BME280;40488;48.558;18.150;2022-10-31T10:31:09;100283.84;;;11.95;95.10
54592;BME280;40488;48.558;18.150;2022-10-31T10:33:38;100281.31;;;11.98;95.36
54592;BME280;40488;48.558;18.150;2022-10-31T10:36:12;100280.44;;;11.90;95.06
54592;BME280;40488;48.558;18.150;2022-10-31T10:38:48;100280.47;;;11.98;95.09
54592;BME280;40488;48.558;18.150;2022-10-31T10:41:19;100278.75;;;12.04;94.90
54592;BME280;40488;48.558;18.150;2022-10-31T10:43:48;100279.66;;;12.06;94.72
54592;BME280;40488;48.558;18.150;2022-10-31T10:46:17;100277.09;;;12.13;94.83
54592;BME280;40488;48.558;18.150;2022-10-31T10:48:57;100276.22;;;12.12;94.65
54592;BME280;40488;48.558;18.150;2022-10-31T10:51:30;100277.94;;;12.10;94.68
54592;BME280;40488;48.558;18.150;2022-10-31T10:54:30;100270.28;;;12.12;94.62
54592;BME280;40488;48.558;18.150;2022-10-31T10:57:06;100270.28;;;12.18;94.81
54592;BME280;40488;48.558;18.150;2022-10-31T10:59:38;100270.31;;;12.24;94.71
54592;BME280;40488;48.558;18.150;2022-10-31T11:02:13;100264.34;;;12.23;94.56
54592;BME280;40488;48.558;18.150;2022-10-31T11:04:44;100270.31;;;12.24;94.33
54592;BME280;40488;48.558;18.150;2022-10-31T11:07:15;100266.03;;;12.26;94.19
54592;BME280;40488;48.558;18.150;2022-10-31T11:09:44;100264.31;;;12.26;94.14
54592;BME280;40488;48.558;18.150;2022-10-31T11:12:17;100265.19;;;12.24;94.15
54592;BME280;40488;48.558;18.150;2022-10-31T11:14:49;100265.19;;;12.27;93.91
54592;BME280;40488;48.558;18.150;2022-10-31T11:17:26;100262.63;;;12.31;93.88
54592;BME280;40488;48.558;18.150;2022-10-31T11:19:59;100261.78;;;12.31;93.90
54592;BME280;40488;48.558;18.150;2022-10-31T11:22:29;100258.38;;;12.33;93.77
54592;BME280;40488;48.558;18.150;2022-10-31T11:24:58;100265.19;;;12.33;93.74
54592;BME280;40488;48.558;18.150;2022-10-31T11:27:26;100253.25;;;12.32;93.78
54592;BME280;40488;48.558;18.150;2022-10-31T11:30:03;100248.09;;;12.29;93.60
54592;BME280;40488;48.558;18.150;2022-10-31T11:32:32;100249.84;;;12.30;93.57
54592;BME280;40488;48.558;18.150;2022-10-31T11:35:02;100253.25;;;12.32;93.52
54592;BME280;40488;48.558;18.150;2022-10-31T11:37:34;100245.56;;;12.35;93.37
54592;BME280;40488;48.558;18.150;2022-10-31T11:40:04;100241.31;;;12.37;93.11
54592;BME280;40488;48.558;18.150;2022-10-31T11:42:35;100244.72;;;12.39;93.16
54592;BME280;40488;48.558;18.150;2022-10-31T11:45:06;100241.31;;;12.40;93.22
54592;BME280;40488;48.558;18.150;2022-10-31T11:47:35;100246.44;;;12.40;93.19
54592;BME280;40488;48.558;18.150;2022-10-31T11:50:08;100241.28;;;12.34;93.20
54592;BME280;40488;48.558;18.150;2022-10-31T11:52:39;100246.41;;;12.28;92.94
54592;BME280;40488;48.558;18.150;2022-10-31T11:55:15;100236.19;;;12.28;92.85
54592;BME280;40488;48.558;18.150;2022-10-31T11:57:44;100238.72;;;12.25;92.89
54592;BME280;40488;48.558;18.150;2022-10-31T12:00:20;100239.56;;;12.27;92.77
54592;BME280;40488;48.558;18.150;2022-10-31T12:02:49;100237.03;;;12.30;92.99
54592;BME280;40488;48.558;18.150;2022-10-31T12:05:18;100237.03;;;12.27;92.98
54592;BME280;40488;48.558;18.150;2022-10-31T12:07:49;100237.88;;;12.23;92.79
54592;BME280;40488;48.558;18.150;2022-10-31T12:10:19;100239.59;;;12.24;92.82
54592;BME280;40488;48.558;18.150;2022-10-31T12:12:53;100239.59;;;12.30;92.94
54592;BME280;40488;48.558;18.150;2022-10-31T12:15:28;100239.59;;;12.33;92.95
54592;BME280;40488;48.558;18.150;2022-10-31T12:18:01;100242.16;;;12.37;92.64
54592;BME280;40488;48.558;18.150;2022-10-31T12:20:36;100244.72;;;12.30;92.63
54592;BME280;40488;48.558;18.150;2022-10-31T12:23:13;100240.44;;;12.27;92.61
54592;BME280;40488;48.558;18.150;2022-10-31T12:25:46;100237.88;;;12.23;92.62
54592;BME280;40488;48.558;18.150;2022-10-31T12:28:39;100236.16;;;12.22;92.61
54592;BME280;40488;48.558;18.150;2022-10-31T12:31:18;100229.31;;;12.19;92.81
54592;BME280;40488;48.558;18.150;2022-10-31T12:33:53;100231.91;;;12.21;92.63
54592;BME280;40488;48.558;18.150;2022-10-31T12:41:52;100224.22;;;12.21;92.82
54592;BME280;40488;48.558;18.150;2022-10-31T12:47:09;100222.50;;;12.20;92.71
54592;BME280;40488;48.558;18.150;2022-10-31T12:49:46;100227.63;;;12.23;92.80
54592;BME280;40488;48.558;18.150;2022-10-31T12:52:25;100225.94;;;12.25;92.89
54592;BME280;40488;48.558;18.150;2022-10-31T12:55:02;100227.66;;;12.26;92.83
54592;BME280;40488;48.558;18.150;2022-10-31T12:57:35;100217.38;;;12.20;92.49
54592;BME280;40488;48.558;18.150;2022-10-31T13:00:05;100225.94;;;12.19;92.67
54592;BME280;40488;48.558;18.150;2022-10-31T13:02:40;100225.91;;;12.13;92.17
54592;BME280;40488;48.558;18.150;2022-10-31T13:05:13;100219.94;;;12.06;92.48
54592;BME280;40488;48.558;18.150;2022-10-31T13:07:42;100219.09;;;12.08;92.62
54592;BME280;40488;48.558;18.150;2022-10-31T13:10:15;100224.22;;;12.08;92.31
54592;BME280;40488;48.558;18.150;2022-10-31T13:12:46;100222.50;;;12.10;92.69
54592;BME280;40488;48.558;18.150;2022-10-31T13:15:18;100213.09;;;12.14;92.49
54592;BME280;40488;48.558;18.150;2022-10-31T13:17:47;100213.97;;;12.08;92.52
54592;BME280;40488;48.558;18.150;2022-10-31T13:20:19;100212.25;;;12.03;92.30
54592;BME280;40488;48.558;18.150;2022-10-31T13:22:50;100213.09;;;11.96;92.12
54592;BME280;40488;48.558;18.150;2022-10-31T13:25:21;100212.22;;;11.95;92.55
54592;BME280;40488;48.558;18.150;2022-10-31T13:27:55;100213.97;;;11.99;92.16